Ridgeville, Ohio
Current Conditions -  °F | °C
As of 1:53 AM on Friday 31 Oct 2014 (Local Time) from KLPR Reporting Station
Overcast Overcast  
Wind Chill: 40°   Ceiling: 4400
Heat Index: 43°   Visibility: 10mi
Dew Point: 38°   Wind: 5mph
Humidity: 82%   Direction: 220°SW
Pressure: 30.02"   Gusts: NA
Location:  41.3603°N, 82.1314°W
Report Text: KLPR 310553Z AUTO 22004KT 10SM OVC044 06/03 A3002 RMK AO2 SLP168 T00610033 10061 20044 58011 TSNO
Loading
Personal Weather Stations






























Interactive Weather Map
Tropical Storm Tracking
New forecast layout! Learn more

10-Day Weather Forecast

Advertisements
Track Severe Weather on mobile